العودة   :: Flying Way :: > ._][_ سـاحة المطـار والطائرات Airport and Aircraft's yard _][_. > السلامة الجوية Flight Safety
تحديث الصفحة [أخبـار] تلف الاطارات الرئيسية لطائرة B737 تابعة لمصر للطيران اثناء هبوطها بالعاصمة الصربية (بلغراد)
الملاحظات

السلامة الجوية Flight Safety   متابعة أخبار حوادث الطيران وتحليل المعلومات التي أدت إليها. راجع فهرس قسم  السلامة الجوية

أدوات الموضوع إبحث في الموضوع
الصورة الرمزية محمد احمد عسيري
Flying Way
قديم 12-09-2018, 06:42 PM   رقم المشاركة : [ 1 ]   
مشاهدة ملفه الشخصي
 
 
 
تم شكره 3,867 مرة في 2,100 مشاركة
محمد احمد عسيري يستحق الثقة والتقديرمحمد احمد عسيري يستحق الثقة والتقديرمحمد احمد عسيري يستحق الثقة والتقديرمحمد احمد عسيري يستحق الثقة والتقديرمحمد احمد عسيري يستحق الثقة والتقديرمحمد احمد عسيري يستحق الثقة والتقديرمحمد احمد عسيري يستحق الثقة والتقديرمحمد احمد عسيري يستحق الثقة والتقديرمحمد احمد عسيري يستحق الثقة والتقديرمحمد احمد عسيري يستحق الثقة والتقديرمحمد احمد عسيري يستحق الثقة والتقدير
معدل تقييم المستوى: 14315
Exclamation تلف الاطارات الرئيسية لطائرة B737 تابعة لمصر للطيران اثناء هبوطها بالعاصمة الصربية (بلغراد)


Incident: Egypt B738 at Belgrade on Sep 12th 2018, all 4 main tyres blown on landing


An Egypt Air Boeing 737-800, registration SU-GCO performing positioning flight MS-3100 from Cairo (Egypt) to Belgrade (Serbia), landed on Belgrade's runway 30 at about 04:11L (02:11Z) but came to a stop on the runway with all 4 main tyres blown, the wheel rims damaging the runway surface. There were no injuries, the aircraft received minor damage, the runway surface was damaged, too.

The runway was closed for about 8 hours as result.

The occurrence aircraft is still on the ground 12 hours after landing.

Related NOTAMs:
A3138/18 NOTAMR A3137/18
Q) LYBA/QMRLC/IV/NBO/A /000/999/4449N02018E005
A) LYBE B) 1809120540 C) 1809120900 EST
E) RWY 12/30 CLSD DUE TO DISABLED ACFT.

A2974/18 NOTAMN
Q) LYBA/QMRLC/IV/NBO/A /000/999/4449N02018E005
A) LYBE B) 1809122300 C) 1809130310
E) RWY 12/30 CLSD EXC FOR EMERG LDG.

A3136/18 NOTAMN
Q) LYBA/QMRLC/IV/NBO/A /000/999/4449N02018E005
A) LYBE B) 1809120252 C) 1809120444
E) RWY 12/30 CLSD.

A3137/18 NOTAMR A3136/18
Q) LYBA/QMRLC/IV/NBO/A /000/999/4449N02018E005
A) LYBE B) 1809120408 C) 1809120700
E) RWY 12/30 CLSD.

Metars:
LYBE 120330Z 19004KT CAVOK 18/15 Q1023 NOSIG=
LYBE 120300Z 23004KT CAVOK 18/15 Q1023 NOSIG=
LYBE 120230Z 19004KT CAVOK 18/14 Q1023 NOSIG=
LYBE 120200Z 22003KT CAVOK 18/14 Q1023 NOSIG=
LYBE 120130Z 24005KT CAVOK 18/14 Q1023 NOSIG=
LYBE 120100Z 26006KT CAVOK 18/14 Q1024 NOSIG=
LYBE 120030Z 26005KT CAVOK 19/14 Q1024 NOSIG=
LYBE 120000Z 23005KT CAVOK 20/14 Q1024 NOSIG=
LYBE 112330Z 18004KT 140V200 CAVOK 20/13 Q1024 NOSIG=
LYBE 112300Z VRB02KT CAVOK 20/13 Q1024 NOSIG=
LYBE 112230Z 30005KT CAVOK 20/13 Q1024 NOSIG=

The left main gear



The right main gear

http://avherald.com/h?article=4bd94a18&opt=0

قديم 12-09-2018, 06:44 PM   رقم المشاركة : [ 2 ]   
محمد احمد عسيري
Flying Way
الصورة الرمزية محمد احمد عسيري
Exclamation رد: تلف الاطارات الرئيسية لطائرة B737 تابعة لمصر للطيران اثناء هبوطها بالعاصمة الصربية (بلغراد)

مصر للطيران: واقعة إطارات طائرة بلجراد طبيعية وجارى تجهيز الرحلة للعودة

قالت شركة مصر للطيران أن رحلة للشركة هبطت صباح بمطار بلجراد في دولة صربيا بعد تلف الإطارات الخلفية للطائرة فور الهبوط علي مدرج المطار وذلك بسبب انخفاض مفاجئ فى ضغط الهواء بعد الهبوط.


وأوضحت الشركة في بيان اليوم الأربعاء أن الطائرة من طراز بوينج 737/800 كانت في رحلة خاصة تحمل رقم 3100 إلى مطار بلجراد، والشركة لا تسير رحلات منتظمة إلى تلك الوجهة، مضيفة أن قائد الطائرة فوجئ بتلف الإطارات أثناء الهبوط، مؤكدة أن الواقعة طبيعية خاصا أن قائد الرحلة تمكن من الحفاظ على مسار الطائرة علي المدرج دون انحرافها، وأشارت إلي أن التلفيات هي عبارة عن إصابات إطارات الطائرة فقط وأنه تم إغلاق المدرج لسحب الطائرة للصيانة، وجاري التحقق من أسباب الواقعة وتجهيز الطائرة للعودة.


وكما هو متعارف عليه في جميع شركات الطيران يتم الفحص والتدقيق الكامل للطائرة قبل وبعد كل رحلة ومنها فحص الإطارات والتأكد من سلامتها .


https://www.youm7.com/story/2018/9/1...%D8%A9/3947143
  إقتباس
إضافة رد

«     سقوط طائرة هيلوكوبتر من طراز شينوك تابعة لسلاح الجو الإيراني ونجاة طاقمها   |    طيار يغفو لأكثر من ساعة على متن رحلة من أميركا إلى اسكتلندا    »


الذين يشاهدون محتوى الموضوع الآن : 1 ( الأعضاء 0 والزوار 1)
 
أدوات الموضوع إبحث في الموضوع
إبحث في الموضوع:

البحث المتقدم

الانتقال السريع

الساعة الآن 12:38 AM.
Powered by vBulletin® Version 3.8.9
Copyright ©2000 - 2018, vBulletin Solutions, Inc.
حق العلم والمعرفة يعادل حق الحياة للأنسان - لذا نحن كمسؤلين في الشبكة متنازلون عن جميع الحقوق
All trademarks and copyrights held by respective owners. Member comments are owned by the poster.
خط الطيران 2004-2018